createdAt,value
2023-02-13T00:01:09.678Z,93.94
2023-02-13T00:03:38.003Z,94.17
2023-02-13T00:06:06.358Z,94.52
2023-02-13T00:08:34.741Z,93.83
2023-02-13T00:11:02.979Z,93.99
2023-02-13T00:13:31.592Z,93.68
2023-02-13T00:16:03.517Z,94.32
2023-02-13T00:18:35.622Z,93.34
2023-02-13T00:21:06.091Z,93.73
2023-02-13T00:23:35.934Z,93.81
2023-02-13T00:26:08.134Z,93.34
2023-02-13T00:28:36.615Z,93.63
2023-02-13T00:31:08.874Z,93.75
2023-02-13T00:33:37.491Z,94.05
2023-02-13T00:36:07.499Z,93.75
2023-02-13T00:38:35.829Z,93.77
2023-02-13T00:41:04.767Z,93.85
2023-02-13T00:43:33.538Z,93.33
2023-02-13T00:46:01.947Z,93.20
2023-02-13T00:48:35.318Z,92.88
2023-02-13T00:51:04.294Z,92.81
2023-02-13T00:53:33.076Z,93.28
2023-02-13T00:56:01.935Z,93.87
2023-02-13T00:58:30.702Z,93.02
2023-02-13T01:01:00.436Z,93.30
2023-02-13T01:03:29.121Z,92.90
2023-02-13T01:05:58.955Z,92.73
2023-02-13T01:08:28.521Z,92.88
2023-02-13T01:10:58.208Z,92.16
2023-02-13T01:13:27.202Z,92.28
2023-02-13T01:15:57.086Z,92.41
2023-02-13T01:18:25.443Z,92.23
2023-02-13T01:21:02.493Z,91.91
2023-02-13T01:23:34.573Z,92.25
2023-02-13T01:26:04.804Z,92.33
2023-02-13T01:28:33.134Z,91.99
2023-02-13T01:31:02.061Z,91.88
2023-02-13T01:33:30.918Z,91.83
2023-02-13T01:36:00.435Z,91.74
2023-02-13T01:38:30.743Z,92.30
2023-02-13T01:40:59.448Z,91.96
2023-02-13T01:43:44.816Z,92.48
2023-02-13T01:46:14.048Z,92.43
2023-02-13T01:48:42.465Z,91.81
2023-02-13T01:51:14.496Z,92.48
2023-02-13T01:53:46.624Z,92.48
2023-02-13T01:56:18.473Z,92.50
2023-02-13T01:58:49.441Z,92.87
2023-02-13T02:01:17.870Z,92.59
2023-02-13T02:03:48.688Z,92.42
2023-02-13T02:06:21.001Z,92.20
2023-02-13T02:08:51.205Z,92.22
2023-02-13T02:11:27.477Z,92.53
2023-02-13T02:13:56.073Z,92.46
2023-02-13T02:16:33.647Z,92.54
2023-02-13T02:19:07.191Z,92.87
2023-02-13T02:22:08.016Z,92.81
2023-02-13T02:25:09.483Z,93.18
2023-02-13T02:28:11.246Z,93.09
2023-02-13T02:31:16.577Z,92.84
2023-02-13T02:33:55.772Z,93.26
2023-02-13T02:36:37.450Z,93.07
2023-02-13T02:39:12.232Z,92.70
2023-02-13T02:41:55.673Z,92.92
2023-02-13T02:44:33.712Z,93.03
2023-02-13T02:47:28.143Z,93.04
2023-02-13T02:50:06.281Z,92.82
2023-02-13T02:52:44.526Z,92.68
2023-02-13T02:55:22.465Z,93.07
2023-02-13T02:58:21.504Z,92.72
2023-02-13T03:01:08.591Z,93.16
2023-02-13T03:03:55.272Z,93.14
2023-02-13T03:06:27.658Z,92.68
2023-02-13T03:09:16.636Z,93.44
2023-02-13T03:12:05.431Z,93.78
2023-02-13T03:14:34.204Z,93.46
2023-02-13T03:17:20.974Z,93.39
2023-02-13T03:20:16.440Z,93.41
2023-02-13T03:22:56.603Z,93.78
2023-02-13T03:25:34.546Z,94.10
2023-02-13T03:28:30.042Z,94.47
2023-02-13T03:31:02.456Z,94.65
2023-02-13T03:33:46.026Z,94.81
2023-02-13T03:36:37.221Z,94.77
2023-02-13T03:39:10.128Z,94.64
2023-02-13T03:41:40.726Z,94.21
2023-02-13T03:44:13.812Z,93.99
2023-02-13T03:46:44.776Z,93.68
2023-02-13T03:49:34.666Z,93.49
2023-02-13T03:52:07.052Z,93.44
2023-02-13T03:54:59.978Z,93.45
2023-02-13T03:57:47.724Z,93.03
2023-02-13T04:00:17.827Z,92.94
2023-02-13T04:02:55.782Z,93.12
2023-02-13T04:05:27.217Z,92.91
2023-02-13T04:07:55.553Z,92.98
2023-02-13T04:10:26.626Z,92.66
2023-02-13T04:13:01.217Z,93.23
2023-02-13T04:15:32.793Z,92.87
2023-02-13T04:18:06.289Z,93.13
2023-02-13T04:20:34.786Z,92.66
2023-02-13T04:23:06.956Z,92.66
2023-02-13T04:25:37.519Z,92.96
2023-02-13T04:28:05.967Z,92.70
2023-02-13T04:30:34.818Z,92.60
2023-02-13T04:33:03.052Z,92.62
2023-02-13T04:35:31.383Z,93.35
2023-02-13T04:37:59.662Z,93.66
2023-02-13T04:40:27.866Z,94.23
2023-02-13T04:42:57.721Z,94.34
2023-02-13T04:45:25.992Z,94.36
2023-02-13T04:47:54.707Z,94.38
2023-02-13T04:50:23.329Z,93.57
2023-02-13T04:52:54.316Z,93.60
2023-02-13T05:00:15.092Z,93.12
2023-02-13T05:02:43.467Z,92.82
2023-02-13T05:05:11.819Z,92.50
2023-02-13T05:07:40.027Z,92.49
2023-02-13T05:10:08.968Z,92.61
2023-02-13T05:12:37.252Z,92.41
2023-02-13T05:15:06.608Z,93.32
2023-02-13T05:17:36.204Z,93.49
2023-02-13T05:20:04.463Z,94.17
2023-02-13T05:22:58.448Z,93.57
2023-02-13T05:25:26.627Z,93.57
2023-02-13T05:27:54.734Z,93.78
2023-02-13T05:30:23.129Z,94.71
2023-02-13T05:32:52.854Z,95.37
2023-02-13T05:35:21.016Z,95.82
2023-02-13T05:37:49.167Z,95.69
2023-02-13T05:40:17.564Z,96.02
2023-02-13T05:42:45.682Z,96.21
2023-02-13T05:45:13.885Z,96.33
2023-02-13T05:47:42.148Z,96.24
2023-02-13T05:50:12.121Z,95.45
2023-02-13T05:52:40.232Z,95.27
2023-02-13T05:55:09.251Z,95.35
2023-02-13T05:57:37.442Z,95.93
2023-02-13T06:00:07.242Z,95.88
2023-02-13T06:02:35.990Z,95.63
2023-02-13T06:05:04.201Z,95.53
2023-02-13T06:07:33.832Z,95.65
2023-02-13T06:10:02.089Z,95.29
2023-02-13T06:12:30.332Z,94.71
2023-02-13T06:14:58.537Z,94.83
2023-02-13T06:17:26.865Z,94.17
2023-02-13T06:19:55.386Z,94.38
2023-02-13T06:22:23.527Z,93.84
2023-02-13T06:24:53.008Z,93.40
2023-02-13T06:27:21.234Z,93.36
2023-02-13T06:29:49.552Z,93.55
2023-02-13T06:32:20.029Z,93.12
2023-02-13T06:34:48.556Z,92.73
2023-02-13T06:37:16.757Z,93.21
2023-02-13T06:39:45.416Z,92.97
2023-02-13T06:42:15.046Z,93.33
2023-02-13T06:44:43.188Z,93.21
2023-02-13T06:47:11.517Z,93.58
2023-02-13T06:49:39.856Z,93.74
2023-02-13T06:52:08.051Z,93.30
2023-02-13T06:54:46.706Z,93.38
2023-02-13T06:57:17.678Z,93.66
2023-02-13T06:59:45.921Z,93.78
2023-02-13T07:02:14.323Z,93.61
2023-02-13T07:04:42.517Z,93.46
2023-02-13T07:07:10.873Z,93.53
2023-02-13T07:09:39.995Z,93.08
2023-02-13T07:12:09.087Z,93.27
2023-02-13T07:14:38.640Z,93.21
2023-02-13T07:17:07.165Z,92.80
2023-02-13T07:19:35.317Z,93.37
2023-02-13T07:22:03.521Z,93.19
2023-02-13T07:24:33.775Z,93.19
2023-02-13T07:27:02.014Z,93.31
2023-02-13T07:29:30.167Z,93.28
2023-02-13T07:31:59.897Z,93.07
2023-02-13T07:34:28.098Z,92.97
2023-02-13T07:36:56.211Z,92.95
2023-02-13T07:39:24.376Z,92.28
2023-02-13T07:41:52.745Z,92.76
2023-02-13T07:44:23.715Z,92.33
2023-02-13T07:46:51.901Z,92.03
2023-02-13T07:49:21.436Z,92.13
2023-02-13T07:51:49.613Z,91.79
2023-02-13T07:54:17.972Z,91.97
2023-02-13T07:56:46.193Z,92.14
2023-02-13T07:59:14.416Z,92.04
2023-02-13T08:01:42.743Z,92.17
2023-02-13T08:04:11.144Z,92.75
2023-02-13T08:06:41.710Z,92.35
2023-02-13T08:09:39.550Z,93.21
2023-02-13T08:12:10.625Z,93.00
2023-02-13T08:14:39.237Z,92.40
2023-02-13T08:17:07.630Z,93.07
2023-02-13T08:19:36.160Z,92.78
2023-02-13T08:22:06.751Z,92.58
2023-02-13T08:24:35.330Z,92.07
2023-02-13T08:27:03.661Z,92.57
2023-02-13T08:29:31.942Z,92.30
2023-02-13T08:32:00.260Z,91.91
2023-02-13T08:34:28.686Z,91.95
2023-02-13T08:36:56.912Z,91.62
2023-02-13T08:39:26.522Z,92.20
2023-02-13T08:41:54.703Z,92.42
2023-02-13T08:44:22.977Z,92.42
2023-02-13T08:46:51.287Z,93.36
2023-02-13T08:49:19.493Z,93.30
2023-02-13T08:51:47.646Z,93.18
2023-02-13T08:54:15.864Z,92.56
2023-02-13T08:56:45.773Z,92.85
2023-02-13T08:59:14.209Z,92.87
2023-02-13T09:01:42.903Z,92.53
2023-02-13T09:04:11.427Z,92.52
2023-02-13T09:06:39.916Z,92.47
2023-02-13T09:09:08.084Z,92.94
2023-02-13T09:11:36.360Z,92.90
2023-02-13T09:14:06.490Z,93.04
2023-02-13T09:16:34.907Z,92.33
2023-02-13T09:19:04.434Z,92.48
2023-02-13T09:21:32.640Z,92.64
2023-02-13T09:24:00.928Z,92.56
2023-02-13T09:26:29.135Z,92.42
2023-02-13T09:28:57.310Z,93.35
2023-02-13T09:31:29.181Z,93.57
2023-02-13T09:33:57.843Z,93.74
2023-02-13T09:36:26.118Z,93.56
2023-02-13T09:38:55.581Z,93.00
2023-02-13T09:41:25.820Z,92.91
2023-02-13T09:43:56.361Z,92.34
2023-02-13T09:46:28.371Z,92.77
2023-02-13T09:48:58.795Z,92.51
2023-02-13T09:51:27.770Z,92.49
2023-02-13T09:53:58.137Z,91.71
2023-02-13T09:56:38.334Z,91.38
2023-02-13T09:59:13.909Z,91.67
2023-02-13T10:01:47.028Z,92.27
2023-02-13T10:04:32.769Z,91.77
2023-02-13T10:07:13.276Z,92.54
2023-02-13T10:09:47.172Z,92.30
2023-02-13T10:12:24.003Z,92.49
2023-02-13T10:14:59.874Z,92.20
2023-02-13T10:17:33.151Z,91.60
2023-02-13T10:20:04.085Z,91.18
2023-02-13T10:22:35.538Z,92.00
2023-02-13T10:25:06.055Z,91.53
2023-02-13T10:27:37.114Z,92.08
2023-02-13T10:30:12.615Z,92.50
2023-02-13T10:32:49.307Z,91.70
2023-02-13T10:35:24.534Z,92.07
2023-02-13T10:37:55.289Z,91.04
2023-02-13T10:40:25.698Z,91.19
2023-02-13T10:42:57.868Z,90.79
2023-02-13T10:45:47.172Z,90.10
2023-02-13T10:48:28.482Z,90.61
2023-02-13T10:51:01.525Z,89.68
2023-02-13T10:53:37.960Z,88.84
2023-02-13T10:56:17.057Z,90.61
2023-02-13T10:58:56.501Z,91.04
2023-02-13T11:01:31.272Z,90.57
2023-02-13T11:04:08.175Z,92.23
2023-02-13T11:06:38.946Z,92.29
2023-02-13T11:09:08.568Z,91.50
2023-02-13T11:11:39.145Z,90.96
2023-02-13T11:14:12.798Z,90.47
2023-02-13T11:16:44.449Z,90.65
2023-02-13T11:19:26.001Z,90.83
2023-02-13T11:22:00.350Z,89.77
2023-02-13T11:24:29.293Z,89.67
2023-02-13T11:27:01.450Z,89.79
2023-02-13T11:29:31.256Z,88.77
2023-02-13T11:32:12.805Z,88.86
2023-02-13T11:34:42.595Z,88.68
2023-02-13T11:37:20.217Z,88.34
2023-02-13T11:39:51.306Z,89.29
2023-02-13T11:42:23.075Z,88.70
2023-02-13T11:44:53.982Z,88.12
2023-02-13T11:47:33.885Z,87.60
2023-02-13T11:50:03.707Z,87.77
2023-02-13T11:52:33.871Z,87.82
2023-02-13T11:55:05.599Z,87.67
2023-02-13T11:57:35.677Z,88.35
2023-02-13T12:00:41.656Z,88.52
2023-02-13T12:03:28.591Z,87.85
2023-02-13T12:06:04.527Z,86.89
2023-02-13T12:08:34.687Z,86.27
2023-02-13T12:11:04.698Z,85.81
2023-02-13T12:13:34.810Z,86.93
2023-02-13T12:16:05.320Z,86.97
2023-02-13T12:18:36.538Z,86.67
2023-02-13T12:21:13.509Z,85.88
2023-02-13T12:23:47.636Z,85.71
2023-02-13T12:26:28.093Z,85.67
2023-02-13T12:29:17.176Z,85.67
2023-02-13T12:31:54.884Z,85.63
2023-02-13T12:34:49.528Z,86.12
2023-02-13T12:37:24.122Z,86.31
2023-02-13T12:40:05.030Z,86.64
2023-02-13T12:42:42.418Z,85.04
2023-02-13T12:45:26.752Z,84.83
2023-02-13T12:48:17.414Z,85.37
2023-02-13T12:50:57.014Z,84.04
2023-02-13T12:53:51.915Z,83.25
2023-02-13T12:56:38.209Z,84.05
2023-02-13T12:59:09.938Z,83.08
2023-02-13T13:02:04.830Z,82.80
2023-02-13T13:04:43.259Z,83.40
2023-02-13T13:07:24.933Z,83.42
2023-02-13T13:10:01.809Z,82.85
2023-02-13T13:12:41.423Z,83.26
2023-02-13T13:15:14.381Z,82.81
2023-02-13T13:17:55.686Z,82.94
2023-02-13T13:20:40.772Z,83.43
2023-02-13T13:23:12.792Z,83.99
2023-02-13T13:25:49.095Z,83.84
2023-02-13T13:28:19.190Z,82.54
2023-02-13T13:30:48.198Z,82.66
2023-02-13T13:33:18.347Z,82.98
2023-02-13T13:35:50.586Z,83.06
2023-02-13T13:38:25.458Z,83.62
2023-02-13T13:40:59.528Z,83.85
2023-02-13T13:43:33.112Z,83.38
2023-02-13T13:46:09.368Z,82.66
2023-02-13T13:48:48.050Z,83.11
2023-02-13T13:51:18.538Z,82.86
2023-02-13T13:54:32.242Z,83.18
2023-02-13T13:57:13.878Z,82.96
2023-02-13T14:00:24.778Z,83.16
2023-02-13T14:03:08.633Z,83.65
2023-02-13T14:06:04.885Z,84.11
2023-02-13T14:08:55.245Z,83.64
2023-02-13T14:11:38.549Z,83.54
2023-02-13T14:14:46.369Z,84.52
2023-02-13T14:17:16.118Z,83.71
2023-02-13T14:19:49.130Z,84.38
2023-02-13T14:22:44.023Z,84.44
2023-02-13T14:25:23.834Z,83.91
2023-02-13T14:27:59.585Z,84.54
2023-02-13T14:30:31.492Z,83.76
2023-02-13T14:33:02.193Z,84.34
2023-02-13T14:35:32.155Z,83.95
2023-02-13T14:38:01.959Z,83.82
2023-02-13T14:40:44.413Z,83.40
2023-02-13T14:43:30.860Z,82.66
2023-02-13T14:46:08.279Z,82.64
2023-02-13T14:48:41.705Z,83.55
2023-02-13T14:51:18.099Z,82.80
2023-02-13T14:53:50.646Z,82.48
2023-02-13T14:56:22.669Z,83.30
2023-02-13T14:58:52.989Z,83.78
2023-02-13T15:01:31.396Z,83.17
2023-02-13T15:04:05.651Z,83.70
2023-02-13T15:06:36.958Z,83.29
2023-02-13T15:09:07.926Z,83.91
2023-02-13T15:11:38.032Z,82.54
2023-02-13T15:14:20.956Z,82.82
2023-02-13T15:16:54.314Z,83.76
2023-02-13T15:19:23.565Z,83.43
2023-02-13T15:21:57.660Z,83.54
2023-02-13T15:24:26.150Z,84.43
2023-02-13T15:27:15.378Z,84.67
2023-02-13T15:29:54.974Z,84.02
2023-02-13T15:32:29.632Z,83.93
2023-02-13T15:34:57.731Z,84.23
2023-02-13T15:37:29.601Z,85.20
2023-02-13T15:39:57.751Z,84.35
2023-02-13T15:42:26.388Z,83.61
2023-02-13T15:44:56.617Z,84.34
2023-02-13T15:47:29.530Z,84.42
2023-02-13T15:49:57.892Z,84.08
2023-02-13T15:52:31.840Z,84.35
2023-02-13T15:55:00.387Z,83.91
2023-02-13T15:57:29.478Z,83.89
2023-02-13T15:59:59.037Z,83.89
2023-02-13T16:02:32.163Z,84.11
2023-02-13T16:05:02.620Z,83.19
2023-02-13T16:07:30.790Z,83.45
2023-02-13T16:10:16.731Z,83.53
2023-02-13T16:12:47.301Z,83.02
2023-02-13T16:15:17.830Z,83.91
2023-02-13T16:17:48.233Z,85.33
2023-02-13T16:20:21.660Z,85.35
2023-02-13T16:22:51.622Z,84.60
2023-02-13T16:25:24.307Z,84.11
2023-02-13T16:27:54.384Z,83.27
2023-02-13T16:30:35.009Z,83.74
2023-02-13T16:33:21.633Z,84.20
2023-02-13T16:35:51.347Z,84.70
2023-02-13T16:38:32.097Z,84.86
2023-02-13T16:41:02.321Z,83.91
2023-02-13T16:43:41.274Z,84.14
2023-02-13T16:46:21.076Z,84.93
2023-02-13T16:49:03.585Z,84.12
2023-02-13T16:51:35.587Z,84.75
2023-02-13T16:54:05.764Z,84.57
2023-02-13T16:56:40.716Z,84.26
2023-02-13T16:59:22.577Z,84.30
2023-02-13T17:02:18.215Z,84.35
2023-02-13T17:04:49.643Z,84.71
2023-02-13T17:07:20.354Z,85.35
2023-02-13T17:09:57.489Z,84.48
2023-02-13T17:12:26.291Z,84.62
2023-02-13T17:14:58.118Z,84.72
2023-02-13T17:17:28.951Z,85.44
2023-02-13T17:19:58.892Z,85.70
2023-02-13T17:22:34.220Z,85.29
2023-02-13T17:25:03.751Z,85.86
2023-02-13T17:27:32.012Z,85.31
2023-02-13T17:30:00.250Z,85.22
2023-02-13T17:32:29.120Z,85.29
2023-02-13T17:34:58.614Z,84.96
2023-02-13T17:37:28.180Z,84.69
2023-02-13T17:39:56.518Z,84.26
2023-02-13T17:42:27.594Z,84.59
2023-02-13T17:44:57.847Z,84.61
2023-02-13T17:47:26.561Z,84.19
2023-02-13T17:50:01.977Z,83.69
2023-02-13T17:52:31.970Z,84.54
2023-02-13T17:55:00.018Z,84.08
2023-02-13T17:57:28.130Z,83.08
2023-02-13T17:59:57.011Z,83.47
2023-02-13T18:02:27.196Z,84.15
2023-02-13T18:04:55.313Z,83.67
2023-02-13T18:07:23.448Z,83.73
2023-02-13T18:09:53.103Z,83.92
2023-02-13T18:12:23.146Z,84.81
2023-02-13T18:14:52.601Z,85.65
2023-02-13T18:17:21.200Z,85.60
2023-02-13T18:19:50.500Z,86.05
2023-02-13T18:22:18.677Z,85.98
2023-02-13T18:24:46.833Z,85.55
2023-02-13T18:27:16.569Z,86.15
2023-02-13T18:29:44.842Z,85.38
2023-02-13T18:32:13.085Z,85.45
2023-02-13T18:34:41.405Z,85.62
2023-02-13T18:37:10.100Z,85.22
2023-02-13T18:39:38.245Z,84.26
2023-02-13T18:42:06.488Z,84.29
2023-02-13T18:44:36.046Z,83.92
2023-02-13T18:47:04.257Z,84.63
2023-02-13T18:49:32.676Z,84.04
2023-02-13T18:52:01.702Z,83.97
2023-02-13T18:54:30.024Z,85.71
2023-02-13T18:56:58.117Z,85.02
2023-02-13T18:59:26.496Z,85.89
2023-02-13T19:02:21.414Z,84.74
2023-02-13T19:04:49.608Z,85.54
2023-02-13T19:07:17.824Z,84.87
2023-02-13T19:09:45.987Z,85.05
2023-02-13T19:12:14.215Z,83.92
2023-02-13T19:14:42.477Z,83.91
2023-02-13T19:17:10.791Z,84.77
2023-02-13T19:19:40.569Z,83.82
2023-02-13T19:22:08.716Z,84.22
2023-02-13T19:24:36.937Z,84.63
2023-02-13T19:27:05.191Z,85.77
2023-02-13T19:29:33.387Z,85.63
2023-02-13T19:32:01.662Z,86.95
2023-02-13T19:34:30.066Z,87.45
2023-02-13T19:37:00.052Z,89.80
2023-02-13T19:39:28.358Z,89.80
2023-02-13T19:41:56.593Z,89.40
2023-02-13T19:44:24.961Z,89.97
2023-02-13T19:46:53.225Z,90.16
2023-02-13T19:49:22.472Z,89.72
2023-02-13T19:51:50.917Z,91.12
2023-02-13T19:54:20.521Z,90.84
2023-02-13T19:56:48.680Z,91.41
2023-02-13T19:59:16.852Z,91.01
2023-02-13T20:01:45.844Z,92.10
2023-02-13T20:04:14.077Z,93.08
2023-02-13T20:06:42.318Z,93.38
2023-02-13T20:09:12.862Z,94.14
2023-02-13T20:11:42.926Z,93.52
2023-02-13T20:14:15.053Z,93.67
2023-02-13T20:16:45.684Z,93.52
2023-02-13T20:19:14.798Z,93.90
2023-02-13T20:21:44.103Z,94.27
2023-02-13T20:24:13.119Z,93.88
2023-02-13T20:26:42.897Z,94.02
2023-02-13T20:29:11.144Z,93.10
2023-02-13T20:31:41.532Z,92.64
2023-02-13T20:34:10.246Z,92.66
2023-02-13T20:36:38.450Z,93.60
2023-02-13T20:39:08.398Z,92.87
2023-02-13T20:41:38.243Z,95.02
2023-02-13T20:44:09.758Z,94.54
2023-02-13T20:46:39.600Z,94.02
2023-02-13T20:49:08.399Z,93.25
2023-02-13T20:51:36.787Z,93.38
2023-02-13T20:54:05.465Z,93.21
2023-02-13T20:56:33.845Z,93.10
2023-02-13T20:59:02.666Z,92.30
2023-02-13T21:01:34.214Z,93.15
2023-02-13T21:04:03.583Z,93.32
2023-02-13T21:06:34.441Z,93.62
2023-02-13T21:09:03.577Z,94.32
2023-02-13T21:11:34.459Z,94.83
2023-02-13T21:14:02.983Z,95.29
2023-02-13T21:16:34.617Z,95.11
2023-02-13T21:19:06.370Z,95.15
2023-02-13T21:21:36.513Z,94.33
2023-02-13T21:24:08.064Z,93.79
2023-02-13T21:26:37.103Z,94.38
2023-02-13T21:29:05.938Z,93.77
2023-02-13T21:31:37.378Z,93.96
2023-02-13T21:34:07.565Z,93.72
2023-02-13T21:36:39.227Z,93.28
2023-02-13T21:39:08.943Z,93.15
2023-02-13T21:41:38.233Z,93.72
2023-02-13T21:44:06.619Z,94.18
2023-02-13T21:46:37.201Z,93.71
2023-02-13T21:49:07.067Z,93.63
2023-02-13T21:51:36.680Z,94.57
2023-02-13T21:54:06.185Z,94.63
2023-02-13T21:56:36.273Z,94.75
2023-02-13T21:59:04.920Z,94.15
2023-02-13T22:01:47.184Z,94.33
2023-02-13T22:04:15.660Z,94.37
2023-02-13T22:06:44.054Z,94.78
2023-02-13T22:09:14.247Z,94.27
2023-02-13T22:11:42.798Z,93.76
2023-02-13T22:14:13.298Z,94.35
2023-02-13T22:16:42.620Z,93.99
2023-02-13T22:19:14.624Z,94.04
2023-02-13T22:21:43.283Z,95.08
2023-02-13T22:24:11.901Z,94.74
2023-02-13T22:26:41.450Z,93.98
2023-02-13T22:29:11.969Z,94.04
2023-02-13T22:31:41.526Z,93.12
2023-02-13T22:34:13.631Z,92.91
2023-02-13T22:36:42.929Z,93.38
2023-02-13T22:39:11.782Z,92.74
2023-02-13T22:41:41.182Z,93.10
2023-02-13T22:44:09.324Z,92.37
2023-02-13T22:46:37.552Z,92.71
2023-02-13T22:49:05.840Z,92.73
2023-02-13T22:51:37.859Z,93.98
2023-02-13T22:54:06.385Z,95.21
2023-02-13T22:56:34.881Z,95.13
2023-02-13T22:59:03.472Z,95.08
2023-02-13T23:01:31.644Z,94.76
2023-02-13T23:03:59.899Z,94.49
2023-02-13T23:06:28.557Z,93.61
2023-02-13T23:08:58.619Z,93.89
2023-02-13T23:11:45.499Z,93.84
2023-02-13T23:14:13.978Z,93.13
2023-02-13T23:17:00.580Z,93.86
2023-02-13T23:19:30.011Z,93.96
2023-02-13T23:21:58.609Z,93.45
2023-02-13T23:24:28.565Z,93.00
2023-02-13T23:26:56.968Z,93.26
2023-02-13T23:29:25.374Z,93.11
2023-02-13T23:31:53.795Z,93.59
2023-02-13T23:34:22.456Z,95.56
2023-02-13T23:36:50.957Z,95.28
2023-02-13T23:39:19.958Z,95.05
2023-02-13T23:41:49.455Z,94.83
2023-02-13T23:44:17.633Z,94.60
2023-02-13T23:46:46.000Z,94.11
2023-02-13T23:49:14.354Z,94.18
2023-02-13T23:51:42.409Z,94.80
2023-02-13T23:54:15.595Z,94.94
2023-02-13T23:56:43.854Z,95.41
2023-02-13T23:59:13.324Z,95.36
